createdAt,value
2023-02-02T00:01:10.341Z,16.50
2023-02-02T00:03:14.514Z,15.50
2023-02-02T00:05:18.733Z,16.73
2023-02-02T00:07:24.266Z,14.65
2023-02-02T00:09:29.644Z,16.95
2023-02-02T00:11:33.869Z,15.00
2023-02-02T00:13:37.995Z,15.68
2023-02-02T00:15:42.278Z,16.17
2023-02-02T00:17:46.391Z,14.15
2023-02-02T00:19:50.582Z,15.32
2023-02-02T00:21:54.819Z,15.55
2023-02-02T00:24:00.328Z,15.43
2023-02-02T00:26:04.512Z,14.65
2023-02-02T00:28:09.668Z,16.15
2023-02-02T00:30:14.890Z,14.63
2023-02-02T00:32:19.542Z,14.55
2023-02-02T00:34:23.888Z,15.20
2023-02-02T00:36:28.059Z,15.15
2023-02-02T00:38:32.210Z,14.93
2023-02-02T00:40:37.791Z,14.18
2023-02-02T00:42:43.152Z,14.30
2023-02-02T00:45:05.130Z,13.88
2023-02-02T00:47:09.296Z,16.55
2023-02-02T00:49:13.895Z,15.02
2023-02-02T00:51:18.014Z,15.30
2023-02-02T00:53:22.250Z,13.73
2023-02-02T00:55:26.789Z,13.95
2023-02-02T00:57:32.379Z,13.93
2023-02-02T00:59:36.537Z,14.88
2023-02-02T01:01:40.659Z,14.02
2023-02-02T01:03:44.866Z,14.15
2023-02-02T01:05:50.139Z,13.98
2023-02-02T01:07:54.457Z,14.77
2023-02-02T01:09:58.591Z,13.30
2023-02-02T01:12:02.756Z,15.27
2023-02-02T01:14:08.261Z,14.82
2023-02-02T01:16:12.746Z,14.05
2023-02-02T01:18:17.221Z,13.90
2023-02-02T01:20:21.943Z,13.38
2023-02-02T01:22:26.214Z,13.95
2023-02-02T01:24:30.391Z,12.75
2023-02-02T01:26:34.600Z,13.55
2023-02-02T01:28:39.133Z,12.75
2023-02-02T01:30:44.744Z,13.23
2023-02-02T01:32:48.938Z,13.40
2023-02-02T01:34:53.126Z,14.50
2023-02-02T01:36:57.333Z,13.55
2023-02-02T01:39:02.044Z,12.73
2023-02-02T01:41:07.093Z,13.45
2023-02-02T01:43:12.505Z,13.15
2023-02-02T01:45:23.519Z,12.25
2023-02-02T01:47:30.409Z,12.80
2023-02-02T01:49:34.554Z,12.40
2023-02-02T01:51:41.956Z,12.77
2023-02-02T01:53:46.338Z,14.02
2023-02-02T01:55:50.746Z,13.23
2023-02-02T01:57:58.683Z,12.20
2023-02-02T02:00:04.736Z,12.75
2023-02-02T02:02:17.425Z,11.60
2023-02-02T02:04:23.126Z,13.10
2023-02-02T02:06:27.315Z,12.27
2023-02-02T02:08:34.868Z,14.85
2023-02-02T02:10:39.472Z,12.80
2023-02-02T02:12:43.625Z,12.77
2023-02-02T02:15:06.291Z,13.23
2023-02-02T02:17:27.042Z,13.00
2023-02-02T02:20:11.759Z,13.07
2023-02-02T02:22:34.748Z,13.15
2023-02-02T02:25:41.809Z,11.48
2023-02-02T02:28:24.772Z,11.98
2023-02-02T02:30:54.615Z,11.63
2023-02-02T02:33:01.148Z,13.37
2023-02-02T02:35:09.119Z,13.13
2023-02-02T02:37:15.762Z,12.35
2023-02-02T02:39:21.747Z,12.20
2023-02-02T02:41:30.119Z,11.75
2023-02-02T02:43:36.218Z,11.85
2023-02-02T02:45:40.438Z,12.15
2023-02-02T02:47:44.765Z,12.13
2023-02-02T02:49:50.740Z,11.35
2023-02-02T02:51:55.277Z,12.07
2023-02-02T02:54:03.813Z,11.63
2023-02-02T02:56:12.076Z,12.02
2023-02-02T02:58:18.116Z,10.68
2023-02-02T03:00:33.764Z,11.85
2023-02-02T03:02:40.848Z,11.15
2023-02-02T03:04:51.012Z,10.85
2023-02-02T03:06:58.527Z,12.02
2023-02-02T03:09:04.292Z,11.10
2023-02-02T03:11:08.972Z,12.32
2023-02-02T03:13:13.489Z,11.70
2023-02-02T03:15:17.779Z,11.63
2023-02-02T03:17:21.939Z,11.20
2023-02-02T03:19:26.066Z,12.18
2023-02-02T03:21:31.540Z,10.57
2023-02-02T03:23:35.778Z,11.60
2023-02-02T03:25:40.264Z,9.85
2023-02-02T03:27:44.502Z,11.25
2023-02-02T03:29:48.698Z,10.88
2023-02-02T03:31:52.820Z,11.68
2023-02-02T03:33:57.022Z,10.77
2023-02-02T03:36:01.141Z,10.98
2023-02-02T03:38:06.636Z,11.82
2023-02-02T03:40:12.049Z,11.23
2023-02-02T03:42:16.505Z,9.68
2023-02-02T03:44:20.624Z,10.50
2023-02-02T03:46:24.850Z,11.07
2023-02-02T03:48:29.242Z,10.70
2023-02-02T03:50:33.406Z,10.80
2023-02-02T03:52:37.569Z,10.95
2023-02-02T03:54:43.022Z,10.75
2023-02-02T03:56:47.691Z,9.85
2023-02-02T03:58:51.921Z,10.80
2023-02-02T04:00:59.407Z,10.10
2023-02-02T04:03:03.541Z,10.40
2023-02-02T04:05:08.185Z,11.52
2023-02-02T04:07:12.574Z,10.68
2023-02-02T04:09:16.680Z,10.18
2023-02-02T04:11:22.180Z,9.68
2023-02-02T04:13:26.490Z,9.73
2023-02-02T04:15:30.621Z,10.90
2023-02-02T04:17:35.298Z,9.38
2023-02-02T04:19:39.439Z,10.07
2023-02-02T04:21:43.603Z,11.65
2023-02-02T04:23:47.833Z,9.43
2023-02-02T04:25:52.375Z,10.43
2023-02-02T04:27:57.849Z,9.73
2023-02-02T04:30:02.067Z,10.30
2023-02-02T04:32:06.468Z,9.55
2023-02-02T04:34:10.611Z,10.60
2023-02-02T04:36:14.790Z,10.80
2023-02-02T04:38:18.912Z,10.15
2023-02-02T04:40:23.063Z,10.25
2023-02-02T04:42:27.237Z,10.60
2023-02-02T04:44:32.898Z,10.63
2023-02-02T04:46:37.059Z,11.30
2023-02-02T04:48:42.043Z,9.55
2023-02-02T04:50:46.217Z,10.15
2023-02-02T04:52:50.536Z,10.02
2023-02-02T04:54:54.774Z,10.48
2023-02-02T04:56:59.014Z,9.65
2023-02-02T04:59:03.119Z,10.27
2023-02-02T05:01:12.011Z,9.27
2023-02-02T05:03:16.492Z,9.63
2023-02-02T05:05:21.361Z,9.88
2023-02-02T05:07:25.580Z,10.73
2023-02-02T05:09:29.651Z,10.60
2023-02-02T05:11:33.720Z,9.85
2023-02-02T05:13:37.794Z,9.25
2023-02-02T05:15:41.935Z,10.82
2023-02-02T05:17:47.381Z,9.70
2023-02-02T05:19:51.504Z,9.18
2023-02-02T05:21:55.741Z,9.57
2023-02-02T05:24:01.097Z,10.18
2023-02-02T05:26:05.454Z,10.15
2023-02-02T05:28:09.556Z,9.27
2023-02-02T05:30:14.141Z,9.30
2023-02-02T05:32:18.249Z,9.05
2023-02-02T05:34:23.848Z,9.23
2023-02-02T05:36:27.948Z,9.77
2023-02-02T05:38:32.158Z,10.60
2023-02-02T05:40:36.604Z,9.48
2023-02-02T05:42:40.716Z,10.25
2023-02-02T05:44:44.824Z,9.57
2023-02-02T05:46:48.925Z,9.40
2023-02-02T05:48:53.031Z,10.05
2023-02-02T05:51:01.249Z,10.27
2023-02-02T05:53:05.354Z,10.02
2023-02-02T05:55:10.529Z,9.30
2023-02-02T05:57:14.933Z,9.32
2023-02-02T05:59:19.066Z,8.55
2023-02-02T06:01:23.222Z,8.68
2023-02-02T06:03:27.522Z,9.82
2023-02-02T06:05:31.715Z,9.13
2023-02-02T06:07:37.606Z,9.48
2023-02-02T06:09:41.721Z,10.20
2023-02-02T06:11:46.065Z,8.82
2023-02-02T06:13:50.356Z,8.95
2023-02-02T06:15:54.949Z,8.93
2023-02-02T06:17:59.240Z,8.60
2023-02-02T06:20:03.383Z,8.98
2023-02-02T06:22:07.978Z,8.40
2023-02-02T06:24:13.494Z,9.15
2023-02-02T06:26:17.985Z,9.02
2023-02-02T06:28:22.165Z,9.50
2023-02-02T06:30:26.311Z,7.95
2023-02-02T06:32:30.804Z,8.52
2023-02-02T06:34:34.943Z,8.60
2023-02-02T06:36:41.478Z,8.77
2023-02-02T06:38:49.244Z,8.52
2023-02-02T06:40:54.792Z,8.60
2023-02-02T06:42:59.434Z,9.25
2023-02-02T06:45:03.612Z,8.30
2023-02-02T06:47:07.840Z,8.30
2023-02-02T06:49:11.940Z,8.50
2023-02-02T06:51:16.032Z,8.20
2023-02-02T06:53:22.942Z,8.20
2023-02-02T06:55:27.440Z,8.80
2023-02-02T06:57:33.254Z,8.60
2023-02-02T06:59:38.193Z,8.45
2023-02-02T07:01:42.416Z,8.80
2023-02-02T07:03:48.901Z,8.45
2023-02-02T07:05:53.003Z,8.05
2023-02-02T07:07:57.172Z,8.60
2023-02-02T07:10:01.315Z,7.65
2023-02-02T07:12:05.645Z,8.38
2023-02-02T07:14:11.225Z,8.15
2023-02-02T07:16:15.560Z,7.30
2023-02-02T07:18:19.758Z,8.95
2023-02-02T07:20:23.912Z,7.57
2023-02-02T07:22:28.010Z,8.85
2023-02-02T07:24:32.744Z,8.20
2023-02-02T07:26:37.326Z,7.80
2023-02-02T07:28:41.705Z,8.73
2023-02-02T07:30:47.331Z,8.80
2023-02-02T07:32:51.596Z,8.38
2023-02-02T07:34:55.678Z,8.23
2023-02-02T07:36:59.894Z,7.93
2023-02-02T07:39:04.976Z,6.68
2023-02-02T07:41:09.343Z,8.23
2023-02-02T07:43:13.476Z,6.22
2023-02-02T07:45:26.604Z,5.13
2023-02-02T07:47:33.302Z,5.72
2023-02-02T07:49:37.371Z,3.67
2023-02-02T07:51:46.317Z,3.80
2023-02-02T07:53:52.876Z,3.45
2023-02-02T07:56:07.038Z,3.95
2023-02-02T07:58:11.298Z,5.50
2023-02-02T08:00:16.178Z,6.70
2023-02-02T08:02:20.278Z,5.07
2023-02-02T08:04:26.101Z,6.47
2023-02-02T08:06:32.430Z,7.40
2023-02-02T08:08:36.528Z,6.60
2023-02-02T08:10:40.584Z,6.65
2023-02-02T08:12:45.013Z,7.00
2023-02-02T08:14:49.590Z,6.60
2023-02-02T08:16:53.659Z,6.13
2023-02-02T08:18:57.792Z,6.47
2023-02-02T08:21:03.659Z,7.78
2023-02-02T08:23:13.325Z,6.72
2023-02-02T08:25:17.663Z,5.88
2023-02-02T08:27:21.736Z,6.80
2023-02-02T08:29:25.823Z,6.00
2023-02-02T08:31:31.021Z,6.53
2023-02-02T08:33:35.104Z,6.10
2023-02-02T08:35:42.355Z,5.43
2023-02-02T08:37:48.300Z,6.25
2023-02-02T08:39:52.599Z,5.47
2023-02-02T08:41:56.889Z,5.40
2023-02-02T08:44:01.072Z,5.70
2023-02-02T08:46:05.928Z,6.13
2023-02-02T08:48:12.671Z,5.40
2023-02-02T08:50:17.732Z,6.40
2023-02-02T08:52:22.517Z,5.57
2023-02-02T08:54:29.442Z,6.07
2023-02-02T08:56:33.538Z,5.75
2023-02-02T08:58:37.811Z,6.22
2023-02-02T09:00:41.939Z,6.63
2023-02-02T09:02:46.034Z,5.68
2023-02-02T09:04:50.088Z,6.22
2023-02-02T09:06:54.150Z,5.47
2023-02-02T09:08:58.257Z,5.95
2023-02-02T09:11:07.731Z,5.07
2023-02-02T09:13:11.806Z,5.85
2023-02-02T09:15:15.854Z,6.35
2023-02-02T09:17:19.945Z,5.10
2023-02-02T09:19:24.065Z,6.03
2023-02-02T09:21:28.507Z,6.78
2023-02-02T09:23:33.121Z,4.80
2023-02-02T09:25:37.213Z,5.20
2023-02-02T09:27:42.736Z,5.40
2023-02-02T09:29:47.014Z,5.60
2023-02-02T09:31:51.225Z,5.13
2023-02-02T09:33:55.362Z,5.70
2023-02-02T09:36:06.147Z,4.82
2023-02-02T09:38:11.181Z,5.32
2023-02-02T09:40:18.797Z,5.32
2023-02-02T09:42:30.284Z,5.00
2023-02-02T09:44:45.883Z,6.35
2023-02-02T09:46:53.532Z,4.90
2023-02-02T09:49:00.817Z,5.45
2023-02-02T09:51:07.067Z,5.07
2023-02-02T09:53:15.626Z,6.10
2023-02-02T09:55:24.287Z,5.05
2023-02-02T09:57:30.599Z,5.03
2023-02-02T09:59:38.061Z,5.43
2023-02-02T10:01:44.783Z,5.93
2023-02-02T10:03:55.609Z,5.15
2023-02-02T10:08:07.137Z,5.13
2023-02-02T10:10:13.094Z,5.45
2023-02-02T10:12:22.459Z,4.45
2023-02-02T10:14:28.773Z,4.80
2023-02-02T10:16:34.198Z,5.18
2023-02-02T10:18:42.698Z,5.07
2023-02-02T10:20:48.506Z,4.80
2023-02-02T10:22:52.700Z,5.20
2023-02-02T10:24:57.323Z,5.28
2023-02-02T10:27:04.166Z,4.63
2023-02-02T10:29:13.849Z,4.88
2023-02-02T10:31:32.169Z,4.20
2023-02-02T10:33:39.737Z,4.93
2023-02-02T10:35:45.818Z,4.93
2023-02-02T10:37:51.292Z,4.65
2023-02-02T10:40:12.193Z,5.43
2023-02-02T10:42:21.463Z,4.32
2023-02-02T10:44:30.723Z,4.68
2023-02-02T10:46:37.704Z,5.20
2023-02-02T10:48:44.309Z,5.13
2023-02-02T10:50:49.769Z,5.72
2023-02-02T10:52:55.414Z,5.15
2023-02-02T10:55:03.986Z,5.60
2023-02-02T10:57:09.746Z,4.65
2023-02-02T10:59:15.389Z,4.68
2023-02-02T11:01:22.638Z,5.32
2023-02-02T11:03:28.384Z,5.07
2023-02-02T11:05:47.854Z,4.70
2023-02-02T11:07:52.708Z,4.70
2023-02-02T11:09:57.098Z,4.45
2023-02-02T11:12:04.785Z,4.88
2023-02-02T11:14:14.405Z,5.18
2023-02-02T11:16:38.871Z,4.63
2023-02-02T11:18:46.769Z,4.20
2023-02-02T11:20:52.198Z,4.25
2023-02-02T11:23:07.419Z,4.90
2023-02-02T11:25:27.031Z,4.93
2023-02-02T11:27:33.566Z,5.30
2023-02-02T11:29:44.980Z,4.40
2023-02-02T11:31:49.166Z,5.38
2023-02-02T11:33:53.280Z,4.85
2023-02-02T11:36:00.242Z,5.22
2023-02-02T11:38:10.826Z,4.55
2023-02-02T11:40:26.070Z,4.93
2023-02-02T11:42:30.444Z,4.80
2023-02-02T11:44:35.672Z,4.57
2023-02-02T11:46:39.777Z,4.45
2023-02-02T11:48:49.892Z,5.47
2023-02-02T11:50:54.881Z,6.05
2023-02-02T11:53:00.330Z,6.65
2023-02-02T11:55:11.171Z,5.97
2023-02-02T11:59:32.680Z,5.82
2023-02-02T12:01:39.515Z,5.80
2023-02-02T12:03:46.058Z,6.30
2023-02-02T12:05:50.531Z,6.57
2023-02-02T12:07:54.659Z,6.00
2023-02-02T12:10:01.933Z,5.70
2023-02-02T12:12:08.899Z,5.55
2023-02-02T12:14:20.846Z,6.03
2023-02-02T12:16:54.420Z,6.40
2023-02-02T12:19:06.472Z,5.72
2023-02-02T12:21:12.704Z,5.50
2023-02-02T12:23:37.541Z,5.90
2023-02-02T12:25:54.616Z,6.13
2023-02-02T12:28:01.722Z,5.53
2023-02-02T12:30:15.571Z,5.38
2023-02-02T12:32:27.937Z,5.35
2023-02-02T12:34:37.139Z,5.50
2023-02-02T12:36:50.364Z,5.10
2023-02-02T12:39:05.685Z,5.47
2023-02-02T12:41:24.479Z,4.63
2023-02-02T12:43:35.354Z,5.05
2023-02-02T12:46:18.377Z,5.45
2023-02-02T12:48:30.710Z,5.72
2023-02-02T12:50:38.138Z,4.50
2023-02-02T12:52:52.434Z,6.45
2023-02-02T12:55:05.935Z,6.32
2023-02-02T12:57:15.872Z,4.25
2023-02-02T12:59:25.019Z,5.03
2023-02-02T13:01:49.953Z,4.70
2023-02-02T13:04:16.522Z,5.07
2023-02-02T13:06:32.509Z,4.80
2023-02-02T13:08:40.000Z,5.20
2023-02-02T13:10:45.403Z,4.93
2023-02-02T13:12:53.347Z,4.53
2023-02-02T13:14:58.504Z,4.75
2023-02-02T13:17:05.566Z,5.18
2023-02-02T13:19:11.488Z,5.05
2023-02-02T13:21:16.782Z,5.35
2023-02-02T13:23:21.969Z,4.65
2023-02-02T13:25:28.571Z,5.15
2023-02-02T13:27:32.964Z,5.22
2023-02-02T13:29:48.080Z,4.32
2023-02-02T13:31:52.984Z,4.55
2023-02-02T13:34:03.572Z,4.00
2023-02-02T13:36:09.863Z,4.60
2023-02-02T13:38:15.824Z,5.13
2023-02-02T13:40:26.424Z,4.70
2023-02-02T13:42:38.183Z,4.53
2023-02-02T13:44:44.396Z,4.82
2023-02-02T13:46:51.512Z,4.38
2023-02-02T13:49:01.067Z,5.20
2023-02-02T13:51:16.629Z,4.68
2023-02-02T13:53:45.701Z,4.18
2023-02-02T13:55:57.667Z,4.60
2023-02-02T13:58:27.953Z,4.22
2023-02-02T14:00:35.818Z,4.75
2023-02-02T14:02:42.835Z,4.22
2023-02-02T14:04:52.369Z,4.22
2023-02-02T14:06:58.958Z,4.97
2023-02-02T14:09:04.397Z,3.83
2023-02-02T14:11:09.036Z,4.47
2023-02-02T14:13:36.096Z,4.22
2023-02-02T14:15:42.253Z,4.18
2023-02-02T14:17:55.980Z,5.35
2023-02-02T14:20:01.139Z,4.72
2023-02-02T14:22:42.144Z,4.30
2023-02-02T14:26:53.032Z,4.72
2023-02-02T14:28:57.181Z,3.88
2023-02-02T14:31:40.451Z,4.45
2023-02-02T14:33:47.521Z,4.00
2023-02-02T14:36:02.189Z,4.03
2023-02-02T14:38:08.061Z,4.35
2023-02-02T14:40:25.206Z,3.70
2023-02-02T14:42:55.235Z,3.90
2023-02-02T14:45:27.933Z,3.57
2023-02-02T14:47:51.513Z,3.95
2023-02-02T14:49:58.966Z,3.40
2023-02-02T14:52:05.163Z,4.13
2023-02-02T14:54:15.997Z,3.78
2023-02-02T14:58:25.935Z,3.53
2023-02-02T15:00:31.187Z,4.47
2023-02-02T15:02:35.986Z,3.55
2023-02-02T15:04:40.107Z,3.70
2023-02-02T15:06:45.876Z,4.30
2023-02-02T15:09:06.391Z,3.92
2023-02-02T15:11:28.991Z,3.75
2023-02-02T15:13:37.327Z,3.97
2023-02-02T15:15:43.607Z,3.65
2023-02-02T15:18:01.549Z,3.90
2023-02-02T15:20:09.694Z,3.80
2023-02-02T15:22:24.288Z,3.97
2023-02-02T15:24:28.666Z,4.70
2023-02-02T15:26:34.034Z,4.15
2023-02-02T15:28:43.150Z,4.18
2023-02-02T15:30:48.480Z,3.80
2023-02-02T15:32:52.562Z,3.53
2023-02-02T15:34:58.852Z,3.85
2023-02-02T15:37:05.981Z,3.78
2023-02-02T15:39:15.094Z,4.15
2023-02-02T15:41:21.297Z,4.30
2023-02-02T15:43:25.424Z,3.60
2023-02-02T15:45:34.720Z,4.32
2023-02-02T15:47:41.912Z,4.50
2023-02-02T15:49:46.340Z,4.15
2023-02-02T15:51:51.295Z,3.90
2023-02-02T15:53:55.389Z,3.47
2023-02-02T15:56:01.864Z,3.90
2023-02-02T15:58:26.217Z,3.97
2023-02-02T16:00:32.181Z,4.57
2023-02-02T16:02:38.559Z,3.70
2023-02-02T16:04:43.428Z,3.63
2023-02-02T16:06:47.647Z,4.53
2023-02-02T16:08:51.718Z,3.63
2023-02-02T16:11:05.290Z,4.40
2023-02-02T16:13:16.524Z,4.53
2023-02-02T16:15:21.692Z,3.67
2023-02-02T16:17:28.242Z,3.33
2023-02-02T16:19:32.321Z,3.67
2023-02-02T16:21:37.119Z,3.78
2023-02-02T16:23:41.225Z,3.58
2023-02-02T16:25:49.346Z,3.78
2023-02-02T16:27:55.052Z,3.75
2023-02-02T16:30:01.262Z,3.47
2023-02-02T16:32:05.752Z,3.28
2023-02-02T16:34:15.482Z,3.42
2023-02-02T16:36:25.888Z,3.92
2023-02-02T16:40:35.906Z,4.40
2023-02-02T16:42:40.373Z,3.33
2023-02-02T16:44:45.795Z,4.13
2023-02-02T16:46:50.249Z,4.15
2023-02-02T16:48:58.327Z,3.38
2023-02-02T16:51:10.954Z,3.67
2023-02-02T16:53:21.402Z,3.97
2023-02-02T16:55:27.960Z,2.70
2023-02-02T16:57:37.892Z,3.80
2023-02-02T16:59:42.358Z,3.65
2023-02-02T17:01:49.824Z,3.60
2023-02-02T17:03:54.792Z,3.30
2023-02-02T17:05:59.038Z,3.83
2023-02-02T17:08:05.460Z,3.75
2023-02-02T17:10:24.938Z,4.47
2023-02-02T17:12:34.096Z,3.25
2023-02-02T17:14:38.887Z,3.40
2023-02-02T17:16:43.763Z,3.17
2023-02-02T17:18:49.423Z,3.50
2023-02-02T17:20:57.579Z,3.40
2023-02-02T17:23:03.096Z,3.17
2023-02-02T17:25:08.037Z,4.30
2023-02-02T17:27:12.880Z,3.72
2023-02-02T17:29:17.327Z,3.58
2023-02-02T17:31:21.492Z,3.72
2023-02-02T17:33:25.709Z,3.63
2023-02-02T17:35:47.338Z,3.40
2023-02-02T17:37:55.343Z,3.75
2023-02-02T17:39:59.409Z,3.40
2023-02-02T17:42:03.572Z,3.47
2023-02-02T17:44:09.258Z,3.50
2023-02-02T17:46:13.940Z,3.67
2023-02-02T17:48:18.093Z,3.50
2023-02-02T17:50:22.467Z,3.20
2023-02-02T17:52:28.019Z,3.25
2023-02-02T17:54:32.473Z,3.45
2023-02-02T17:56:36.557Z,3.80
2023-02-02T17:58:40.760Z,2.88
2023-02-02T18:00:44.955Z,3.70
2023-02-02T18:02:49.117Z,3.45
2023-02-02T18:04:53.296Z,3.65
2023-02-02T18:06:57.406Z,4.30
2023-02-02T18:09:03.080Z,3.47
2023-02-02T18:11:07.384Z,3.22
2023-02-02T18:13:12.499Z,3.30
2023-02-02T18:15:16.555Z,4.05
2023-02-02T18:17:21.069Z,3.25
2023-02-02T18:19:25.173Z,2.97
2023-02-02T18:21:29.822Z,2.65
2023-02-02T18:23:33.888Z,3.72
2023-02-02T18:25:39.495Z,4.07
2023-02-02T18:27:43.666Z,4.28
2023-02-02T18:29:47.773Z,3.78
2023-02-02T18:31:51.977Z,3.45
2023-02-02T18:33:56.123Z,4.40
2023-02-02T18:36:00.251Z,3.63
2023-02-02T18:38:04.463Z,4.57
2023-02-02T18:40:09.586Z,5.72
2023-02-02T18:42:15.318Z,6.05
2023-02-02T18:44:19.409Z,6.57
2023-02-02T18:46:23.526Z,8.23
2023-02-02T18:48:27.658Z,7.32
2023-02-02T18:50:31.785Z,6.13
2023-02-02T18:52:35.926Z,5.78
2023-02-02T18:54:40.340Z,7.32
2023-02-02T18:56:44.552Z,7.00
2023-02-02T18:58:50.028Z,5.65
2023-02-02T19:00:54.103Z,6.00
2023-02-02T19:02:58.187Z,6.00
2023-02-02T19:05:25.224Z,5.70
2023-02-02T19:07:47.114Z,5.65
2023-02-02T19:09:52.899Z,5.45
2023-02-02T19:11:57.101Z,5.25
2023-02-02T19:14:02.614Z,6.03
2023-02-02T19:16:07.524Z,5.57
2023-02-02T19:18:14.557Z,6.70
2023-02-02T19:20:25.961Z,5.10
2023-02-02T19:22:32.377Z,6.13
2023-02-02T19:24:38.547Z,5.15
2023-02-02T19:26:45.452Z,6.32
2023-02-02T19:28:49.629Z,4.40
2023-02-02T19:30:56.129Z,5.40
2023-02-02T19:33:00.344Z,4.47
2023-02-02T19:35:07.436Z,5.28
2023-02-02T19:37:17.846Z,4.82
2023-02-02T19:39:23.096Z,3.75
2023-02-02T19:41:27.556Z,3.88
2023-02-02T19:43:32.948Z,4.50
2023-02-02T19:45:37.610Z,4.60
2023-02-02T19:47:44.691Z,3.97
2023-02-02T19:49:48.783Z,4.82
2023-02-02T19:51:53.616Z,5.05
2023-02-02T19:53:58.327Z,4.63
2023-02-02T19:56:02.673Z,4.93
2023-02-02T19:58:14.716Z,4.20
2023-02-02T20:00:21.244Z,4.50
2023-02-02T20:02:49.649Z,4.13
2023-02-02T20:04:59.831Z,3.47
2023-02-02T20:07:06.493Z,4.32
2023-02-02T20:09:13.288Z,3.58
2023-02-02T20:11:24.427Z,4.25
2023-02-02T20:13:35.219Z,3.92
2023-02-02T20:17:43.453Z,3.55
2023-02-02T20:19:49.178Z,3.08
2023-02-02T20:21:54.145Z,5.07
2023-02-02T20:23:58.276Z,3.65
2023-02-02T20:26:04.280Z,3.35
2023-02-02T20:28:09.617Z,3.10
2023-02-02T20:30:19.599Z,3.35
2023-02-02T20:32:26.303Z,4.05
2023-02-02T20:34:32.655Z,3.75
2023-02-02T20:36:39.595Z,3.15
2023-02-02T20:38:43.718Z,3.70
2023-02-02T20:40:48.064Z,3.45
2023-02-02T20:42:52.338Z,3.20
2023-02-02T20:44:58.043Z,3.70
2023-02-02T20:47:02.216Z,2.97
2023-02-02T20:49:07.876Z,3.65
2023-02-02T20:51:13.020Z,4.13
2023-02-02T20:53:19.052Z,3.95
2023-02-02T20:55:23.591Z,3.97
2023-02-02T20:57:27.702Z,3.80
2023-02-02T20:59:31.865Z,4.18
2023-02-02T21:01:36.020Z,4.40
2023-02-02T21:03:40.103Z,3.85
2023-02-02T21:05:44.435Z,4.53
2023-02-02T21:07:48.643Z,3.85
2023-02-02T21:09:54.074Z,4.47
2023-02-02T21:11:58.292Z,5.13
2023-02-02T21:14:02.426Z,3.85
2023-02-02T21:16:07.603Z,3.47
2023-02-02T21:18:11.677Z,3.53
2023-02-02T21:20:15.850Z,3.90
2023-02-02T21:22:19.951Z,3.20
2023-02-02T21:24:24.085Z,3.10
2023-02-02T21:26:30.570Z,3.58
2023-02-02T21:28:35.118Z,3.53
2023-02-02T21:30:39.664Z,3.35
2023-02-02T21:32:44.156Z,3.53
2023-02-02T21:34:48.629Z,3.22
2023-02-02T21:36:53.688Z,3.75
2023-02-02T21:39:07.868Z,3.35
2023-02-02T21:41:14.262Z,3.53
2023-02-02T21:43:19.930Z,3.38
2023-02-02T21:45:34.236Z,3.67
2023-02-02T21:47:41.491Z,4.32
2023-02-02T21:49:45.565Z,3.40
2023-02-02T21:51:49.697Z,3.97
2023-02-02T21:53:53.785Z,3.47
2023-02-02T21:55:59.524Z,4.82
2023-02-02T21:58:14.447Z,4.88
2023-02-02T22:00:24.676Z,3.95
2023-02-02T22:02:40.492Z,4.25
2023-02-02T22:04:45.522Z,4.05
2023-02-02T22:06:49.911Z,4.43
2023-02-02T22:08:54.785Z,4.07
2023-02-02T22:10:59.241Z,3.28
2023-02-02T22:13:03.581Z,1.33
2023-02-02T22:15:14.092Z,1.80
2023-02-02T22:17:21.935Z,2.03
2023-02-02T22:19:28.099Z,4.05
2023-02-02T22:21:32.176Z,3.70
2023-02-02T22:23:36.292Z,3.10
2023-02-02T22:25:40.347Z,3.00
2023-02-02T22:27:46.330Z,3.78
2023-02-02T22:29:50.754Z,3.45
2023-02-02T22:31:54.891Z,3.33
2023-02-02T22:34:00.321Z,3.10
2023-02-02T22:36:04.606Z,3.70
2023-02-02T22:38:08.718Z,3.33
2023-02-02T22:40:13.716Z,3.63
2023-02-02T22:42:18.304Z,3.20
2023-02-02T22:44:22.419Z,4.07
2023-02-02T22:46:26.514Z,3.65
2023-02-02T22:48:30.623Z,3.13
2023-02-02T22:50:36.091Z,3.55
2023-02-02T22:52:40.416Z,4.00
2023-02-02T22:54:44.511Z,4.20
2023-02-02T22:56:48.580Z,3.70
2023-02-02T22:58:53.040Z,3.17
2023-02-02T23:00:57.127Z,4.20
2023-02-02T23:03:01.409Z,4.13
2023-02-02T23:05:05.744Z,3.47
2023-02-02T23:07:11.204Z,3.58
2023-02-02T23:09:15.276Z,3.45
2023-02-02T23:11:19.342Z,3.45
2023-02-02T23:13:23.619Z,4.78
2023-02-02T23:15:28.078Z,3.17
2023-02-02T23:17:32.653Z,3.97
2023-02-02T23:19:36.738Z,3.13
2023-02-02T23:21:40.899Z,3.72
2023-02-02T23:23:46.309Z,3.55
2023-02-02T23:25:50.383Z,4.25
2023-02-02T23:27:54.516Z,3.40
2023-02-02T23:29:58.616Z,3.03
2023-02-02T23:32:02.779Z,3.55
2023-02-02T23:34:06.871Z,4.18
2023-02-02T23:36:11.005Z,3.75
2023-02-02T23:38:15.324Z,4.43
2023-02-02T23:40:21.087Z,3.75
2023-02-02T23:42:25.550Z,4.70
2023-02-02T23:44:29.616Z,3.45
2023-02-02T23:46:33.721Z,2.80
2023-02-02T23:48:37.815Z,3.17
2023-02-02T23:50:41.905Z,3.65
2023-02-02T23:52:45.965Z,3.22
2023-02-02T23:54:50.050Z,3.67
2023-02-02T23:56:55.473Z,2.58
2023-02-02T23:58:59.522Z,3.13
